RYR54WV LIRI-LOWW
Flight info
| Callsign | RYR54WV |
|---|---|
| Flight time | N/A |
| Altitude | 36000 |
| Route | SOR DCT PES DCT GEMKA DCT LAPNA LAPNA2W |
| Aircraft | A320/M-SDE3FGHIRWY/LB1 |
Departure
| Time | 2026-04-22 18:32 |
|---|---|
| Airport | Salerno Costa d'Amalfi Airport (LIRI) |
Arrival
| Time | N/A |
|---|---|
| Airport | Vienna International Airport (LOWW) |
| Time | Latitude | Longitude | Altitude | Speed | Heading |
|---|---|---|---|---|---|
| 2026-04-22 18:18 | 40.62064 | 14.92044 | 84 ft | 0 kts | 141° |
| 2026-04-22 18:21 | 40.62069 | 14.92039 | 89 ft | 2 kts | 144° |
| 2026-04-22 18:22 | 40.62086 | 14.92026 | 89 ft | 3 kts | 164° |
| 2026-04-22 18:22 | 40.62104 | 14.92023 | 89 ft | 3 kts | 202° |
| 2026-04-22 18:22 | 40.62115 | 14.92032 | 89 ft | 1 kts | 231° |
| 2026-04-22 18:22 | 40.62116 | 14.92033 | 89 ft | 0 kts | 231° |
| 2026-04-22 18:26 | 40.62070 | 14.91957 | 84 ft | 0 kts | 231° |
| 2026-04-22 18:27 | 40.62047 | 14.91916 | 85 ft | 8 kts | 240° |
| 2026-04-22 18:27 | 40.62068 | 14.91841 | 85 ft | 12 kts | 320° |
| 2026-04-22 18:27 | 40.62133 | 14.91750 | 87 ft | 15 kts | 284° |
| 2026-04-22 18:27 | 40.62123 | 14.91606 | 86 ft | 17 kts | 262° |
| 2026-04-22 18:28 | 40.62101 | 14.91449 | 85 ft | 19 kts | 248° |
| 2026-04-22 18:28 | 40.62020 | 14.91298 | 87 ft | 21 kts | 232° |
| 2026-04-22 18:28 | 40.61929 | 14.91143 | 86 ft | 23 kts | 232° |
| 2026-04-22 18:28 | 40.61829 | 14.90973 | 86 ft | 24 kts | 232° |
| 2026-04-22 18:29 | 40.61719 | 14.90788 | 86 ft | 27 kts | 232° |
| 2026-04-22 18:29 | 40.61601 | 14.90590 | 84 ft | 28 kts | 232° |
| 2026-04-22 18:29 | 40.61477 | 14.90382 | 87 ft | 29 kts | 232° |
| 2026-04-22 18:29 | 40.61356 | 14.90179 | 85 ft | 28 kts | 232° |
| 2026-04-22 18:30 | 40.61236 | 14.89978 | 87 ft | 28 kts | 232° |
| 2026-04-22 18:30 | 40.61076 | 14.89713 | 86 ft | 10 kts | 231° |
| 2026-04-22 18:30 | 40.61014 | 14.89659 | 89 ft | 11 kts | 228° |
| 2026-04-22 18:31 | 40.61026 | 14.89632 | 87 ft | 3 kts | 52° |
| 2026-04-22 18:31 | 40.61049 | 14.89669 | 88 ft | 0 kts | 51° |
| 2026-04-22 18:31 | 40.61050 | 14.89670 | 88 ft | 0 kts | 51° |
| 2026-04-22 18:32 | 40.61104 | 14.89759 | 85 ft | 49 kts | 51° |
| 2026-04-22 18:32 | 40.61486 | 14.90399 | 87 ft | 125 kts | 52° |
| 2026-04-22 18:32 | 40.62136 | 14.91478 | 270 ft | 161 kts | 51° |
| 2026-04-22 18:32 | 40.62808 | 14.92634 | 918 ft | 159 kts | 58° |
| 2026-04-22 18:33 | 40.63071 | 14.94065 | 1465 ft | 173 kts | 93° |
| 2026-04-22 18:33 | 40.62476 | 14.95558 | 1755 ft | 206 kts | 137° |
| 2026-04-22 18:33 | 40.61051 | 14.96163 | 2195 ft | 229 kts | 184° |
| 2026-04-22 18:33 | 40.59583 | 14.95328 | 2928 ft | 235 kts | 227° |
| 2026-04-22 18:34 | 40.58798 | 14.93469 | 3654 ft | 243 kts | 259° |
| 2026-04-22 18:34 | 40.58774 | 14.91188 | 4174 ft | 260 kts | 287° |
| 2026-04-22 18:34 | 40.59687 | 14.89138 | 5057 ft | 265 kts | 316° |
| 2026-04-22 18:34 | 40.61297 | 14.87978 | 6101 ft | 268 kts | 341° |
| 2026-04-22 18:35 | 40.63090 | 14.87340 | 7143 ft | 266 kts | 341° |
| 2026-04-22 18:35 | 40.64875 | 14.86691 | 8101 ft | 267 kts | 341° |
| 2026-04-22 18:35 | 40.66670 | 14.86026 | 9002 ft | 269 kts | 340° |
| 2026-04-22 18:35 | 40.68475 | 14.85350 | 9904 ft | 271 kts | 340° |
| 2026-04-22 18:36 | 40.70336 | 14.84646 | 10390 ft | 289 kts | 340° |
| 2026-04-22 18:36 | 40.72348 | 14.83881 | 10724 ft | 310 kts | 340° |
| 2026-04-22 18:36 | 40.74453 | 14.83088 | 11396 ft | 318 kts | 340° |
| 2026-04-22 18:36 | 40.76597 | 14.82292 | 12219 ft | 321 kts | 340° |
| 2026-04-22 18:37 | 40.78759 | 14.81492 | 13097 ft | 324 kts | 340° |
| 2026-04-22 18:37 | 40.80935 | 14.80684 | 13922 ft | 326 kts | 340° |
| 2026-04-22 18:37 | 40.83128 | 14.79868 | 14720 ft | 328 kts | 340° |
| 2026-04-22 18:37 | 40.85329 | 14.79048 | 15466 ft | 329 kts | 339° |
| 2026-04-22 18:38 | 40.87507 | 14.78236 | 16174 ft | 331 kts | 339° |
| 2026-04-22 18:38 | 40.89735 | 14.77403 | 16822 ft | 334 kts | 339° |
| 2026-04-22 18:38 | 40.91981 | 14.76563 | 17543 ft | 336 kts | 339° |
| 2026-04-22 18:39 | 40.96506 | 14.74869 | 18827 ft | 340 kts | 338° |
| 2026-04-22 18:39 | 40.98794 | 14.74012 | 19414 ft | 343 kts | 338° |
| 2026-04-22 18:39 | 41.01102 | 14.73147 | 20008 ft | 346 kts | 338° |
| 2026-04-22 18:39 | 41.03424 | 14.72275 | 20597 ft | 348 kts | 338° |
| 2026-04-22 18:40 | 41.05762 | 14.71395 | 21244 ft | 350 kts | 337° |
| 2026-04-22 18:40 | 41.08109 | 14.70509 | 21841 ft | 352 kts | 337° |
| 2026-04-22 18:40 | 41.10476 | 14.69614 | 22424 ft | 355 kts | 337° |
| 2026-04-22 18:40 | 41.12861 | 14.68715 | 22996 ft | 358 kts | 337° |
| 2026-04-22 18:41 | 41.15268 | 14.67810 | 23534 ft | 361 kts | 337° |
| 2026-04-22 18:41 | 41.17692 | 14.66896 | 23992 ft | 363 kts | 337° |
| 2026-04-22 18:41 | 41.20128 | 14.65981 | 24420 ft | 365 kts | 337° |
| 2026-04-22 18:41 | 41.22576 | 14.65059 | 24886 ft | 366 kts | 337° |
| 2026-04-22 18:42 | 41.25031 | 14.64132 | 25333 ft | 368 kts | 336° |
| 2026-04-22 18:42 | 41.27495 | 14.63201 | 25829 ft | 368 kts | 336° |
| 2026-04-22 18:42 | 41.29957 | 14.62272 | 26306 ft | 368 kts | 336° |
| 2026-04-22 18:42 | 41.32426 | 14.61341 | 26750 ft | 369 kts | 336° |
| 2026-04-22 18:43 | 41.34904 | 14.60404 | 27178 ft | 371 kts | 336° |
| 2026-04-22 18:43 | 41.37387 | 14.59459 | 27590 ft | 372 kts | 336° |
| 2026-04-22 18:43 | 41.39883 | 14.58504 | 27998 ft | 374 kts | 336° |
| 2026-04-22 18:43 | 41.42356 | 14.57560 | 28399 ft | 375 kts | 336° |
| 2026-04-22 18:44 | 41.44871 | 14.56603 | 28818 ft | 377 kts | 336° |
| 2026-04-22 18:44 | 41.47434 | 14.55627 | 29217 ft | 378 kts | 336° |
| 2026-04-22 18:44 | 41.49936 | 14.54676 | 29616 ft | 379 kts | 336° |
| 2026-04-22 18:44 | 41.52478 | 14.53709 | 29986 ft | 381 kts | 336° |
| 2026-04-22 18:45 | 41.55028 | 14.52735 | 30310 ft | 382 kts | 336° |
| 2026-04-22 18:45 | 41.57626 | 14.51741 | 30584 ft | 384 kts | 336° |
| 2026-04-22 18:45 | 41.60164 | 14.50769 | 30856 ft | 385 kts | 336° |
| 2026-04-22 18:45 | 41.62741 | 14.49781 | 31115 ft | 386 kts | 336° |
| 2026-04-22 18:46 | 41.65327 | 14.48789 | 31377 ft | 387 kts | 336° |
| 2026-04-22 18:46 | 41.67907 | 14.47801 | 31729 ft | 385 kts | 337° |
| 2026-04-22 18:46 | 41.70477 | 14.46821 | 32145 ft | 382 kts | 336° |
| 2026-04-22 18:46 | 41.73019 | 14.45850 | 32583 ft | 378 kts | 336° |
| 2026-04-22 18:47 | 41.75540 | 14.44884 | 32952 ft | 376 kts | 336° |
| 2026-04-22 18:47 | 41.78048 | 14.43921 | 33323 ft | 374 kts | 336° |
| 2026-04-22 18:47 | 41.80538 | 14.42963 | 33675 ft | 371 kts | 336° |
| 2026-04-22 18:47 | 41.83015 | 14.42007 | 34018 ft | 370 kts | 336° |
| 2026-04-22 18:48 | 41.85480 | 14.41053 | 34319 ft | 368 kts | 336° |
| 2026-04-22 18:48 | 41.87944 | 14.40096 | 34514 ft | 370 kts | 336° |
| 2026-04-22 18:48 | 41.90420 | 14.39134 | 34710 ft | 371 kts | 336° |
| 2026-04-22 18:48 | 41.92908 | 14.38171 | 34951 ft | 373 kts | 336° |
| 2026-04-22 18:49 | 41.95405 | 14.37205 | 35178 ft | 374 kts | 336° |
| 2026-04-22 18:49 | 41.97913 | 14.36236 | 35385 ft | 375 kts | 336° |
| 2026-04-22 18:49 | 42.00428 | 14.35262 | 35543 ft | 377 kts | 336° |
| 2026-04-22 18:49 | 42.02952 | 14.34286 | 35722 ft | 378 kts | 336° |
| 2026-04-22 18:50 | 42.05483 | 14.33305 | 35882 ft | 379 kts | 336° |
| 2026-04-22 18:50 | 42.08018 | 14.32321 | 36048 ft | 379 kts | 336° |
| 2026-04-22 18:50 | 42.13101 | 14.30342 | 36139 ft | 380 kts | 336° |
| 2026-04-22 18:51 | 42.18187 | 14.28366 | 36124 ft | 380 kts | 336° |
| 2026-04-22 18:51 | 42.23269 | 14.26385 | 36132 ft | 380 kts | 336° |
| 2026-04-22 18:52 | 42.28354 | 14.24393 | 36135 ft | 380 kts | 336° |
| 2026-04-22 18:52 | 42.33438 | 14.22401 | 36137 ft | 380 kts | 336° |
| 2026-04-22 18:53 | 42.38516 | 14.20409 | 36149 ft | 380 kts | 336° |
| 2026-04-22 18:53 | 42.43648 | 14.18605 | 36141 ft | 388 kts | 344° |
| 2026-04-22 18:54 | 42.49134 | 14.18447 | 36132 ft | 396 kts | 351° |
| 2026-04-22 18:54 | 42.54650 | 14.18491 | 36146 ft | 396 kts | 351° |
| 2026-04-22 18:55 | 42.60172 | 14.18522 | 36142 ft | 397 kts | 351° |
| 2026-04-22 18:55 | 42.65698 | 14.18561 | 36131 ft | 397 kts | 351° |
| 2026-04-22 18:56 | 42.71222 | 14.18597 | 36133 ft | 397 kts | 351° |
| 2026-04-22 18:56 | 42.76746 | 14.18623 | 36170 ft | 397 kts | 351° |
| 2026-04-22 18:57 | 42.82283 | 14.18659 | 36163 ft | 398 kts | 351° |
| 2026-04-22 18:57 | 42.87786 | 14.18697 | 36157 ft | 398 kts | 351° |
| 2026-04-22 18:58 | 42.93365 | 14.18731 | 36150 ft | 398 kts | 351° |
| 2026-04-22 18:58 | 42.98870 | 14.18763 | 36159 ft | 398 kts | 351° |
| 2026-04-22 18:59 | 43.04419 | 14.18806 | 36153 ft | 399 kts | 351° |
| 2026-04-22 18:59 | 43.09965 | 14.18844 | 36148 ft | 399 kts | 351° |
| 2026-04-22 19:00 | 43.15513 | 14.18870 | 36179 ft | 399 kts | 352° |
| 2026-04-22 19:00 | 43.21074 | 14.18904 | 36146 ft | 400 kts | 352° |
| 2026-04-22 19:01 | 43.26645 | 14.18940 | 36141 ft | 401 kts | 352° |
| 2026-04-22 19:01 | 43.32225 | 14.18978 | 36137 ft | 401 kts | 352° |
| 2026-04-22 19:02 | 43.37809 | 14.19010 | 36147 ft | 402 kts | 352° |
| 2026-04-22 19:02 | 43.42457 | 14.19037 | 36139 ft | 402 kts | 352° |
| 2026-04-22 19:03 | 43.48062 | 14.19077 | 36134 ft | 403 kts | 352° |
| 2026-04-22 19:03 | 43.54575 | 14.19124 | 36164 ft | 403 kts | 353° |
| 2026-04-22 19:04 | 43.59278 | 14.19153 | 36142 ft | 404 kts | 353° |
| 2026-04-22 19:04 | 43.64908 | 14.19185 | 36133 ft | 405 kts | 353° |
| 2026-04-22 19:05 | 43.70508 | 14.19219 | 36132 ft | 405 kts | 353° |
| 2026-04-22 19:05 | 43.76152 | 14.19252 | 36153 ft | 407 kts | 354° |
| 2026-04-22 19:06 | 43.81821 | 14.19287 | 36137 ft | 408 kts | 354° |
| 2026-04-22 19:07 | 43.90349 | 14.19354 | 36138 ft | 409 kts | 354° |
| 2026-04-22 19:07 | 43.96052 | 14.19390 | 36143 ft | 410 kts | 354° |
| 2026-04-22 19:08 | 44.01761 | 14.19431 | 36144 ft | 410 kts | 354° |
| 2026-04-22 19:08 | 44.07473 | 14.19467 | 36147 ft | 411 kts | 354° |
| 2026-04-22 19:09 | 44.13192 | 14.19505 | 36163 ft | 411 kts | 354° |
| 2026-04-22 19:09 | 44.18919 | 14.19548 | 36151 ft | 412 kts | 354° |
| 2026-04-22 19:10 | 44.24652 | 14.19588 | 36149 ft | 412 kts | 354° |
| 2026-04-22 19:10 | 44.30390 | 14.19629 | 36175 ft | 412 kts | 354° |
| 2026-04-22 19:11 | 44.36136 | 14.19667 | 36164 ft | 413 kts | 355° |
| 2026-04-22 19:11 | 44.41889 | 14.19710 | 36158 ft | 414 kts | 355° |
| 2026-04-22 19:12 | 44.47645 | 14.19743 | 36155 ft | 414 kts | 355° |
| 2026-04-22 19:12 | 44.53408 | 14.19781 | 36174 ft | 414 kts | 355° |
| 2026-04-22 19:13 | 44.59177 | 14.19820 | 36161 ft | 415 kts | 355° |
| 2026-04-22 19:13 | 44.64953 | 14.19863 | 36161 ft | 415 kts | 355° |
| 2026-04-22 19:14 | 44.70731 | 14.19895 | 36180 ft | 415 kts | 355° |
| 2026-04-22 19:14 | 44.76519 | 14.19922 | 36168 ft | 416 kts | 355° |
| 2026-04-22 19:15 | 44.81331 | 14.19949 | 36167 ft | 416 kts | 355° |
| 2026-04-22 19:15 | 44.88103 | 14.20005 | 36146 ft | 416 kts | 355° |
| 2026-04-22 19:16 | 44.93896 | 14.20061 | 36178 ft | 416 kts | 355° |
| 2026-04-22 19:16 | 44.99655 | 14.20099 | 36173 ft | 416 kts | 355° |
| 2026-04-22 19:17 | 45.05446 | 14.20555 | 36179 ft | 424 kts | 9° |
| 2026-04-22 19:17 | 45.08207 | 14.22155 | 36197 ft | 435 kts | 25° |
| 2026-04-22 19:17 | 45.10805 | 14.24374 | 36192 ft | 437 kts | 25° |
| 2026-04-22 19:18 | 45.15987 | 14.28898 | 36183 ft | 438 kts | 26° |
| 2026-04-22 19:18 | 45.21169 | 14.33442 | 36183 ft | 438 kts | 26° |
| 2026-04-22 19:19 | 45.26362 | 14.37983 | 36199 ft | 438 kts | 26° |
| 2026-04-22 19:19 | 45.31568 | 14.42512 | 36191 ft | 439 kts | 26° |
| 2026-04-22 19:20 | 45.36771 | 14.47056 | 36206 ft | 439 kts | 26° |
| 2026-04-22 19:20 | 45.41975 | 14.51625 | 36201 ft | 440 kts | 26° |
| 2026-04-22 19:21 | 45.47181 | 14.56215 | 36219 ft | 440 kts | 27° |
| 2026-04-22 19:21 | 45.52387 | 14.60811 | 36213 ft | 440 kts | 27° |
| 2026-04-22 19:22 | 45.57597 | 14.65403 | 36211 ft | 440 kts | 27° |
| 2026-04-22 19:22 | 45.62809 | 14.70010 | 36234 ft | 441 kts | 27° |
| 2026-04-22 19:23 | 45.68028 | 14.74608 | 36225 ft | 440 kts | 27° |
| 2026-04-22 19:23 | 45.73225 | 14.79242 | 36222 ft | 440 kts | 27° |
| 2026-04-22 19:24 | 45.78416 | 14.83879 | 36225 ft | 440 kts | 27° |
| 2026-04-22 19:24 | 45.83579 | 14.88493 | 36214 ft | 443 kts | 27° |
| 2026-04-22 19:25 | 45.88872 | 14.93222 | 36210 ft | 453 kts | 27° |
| 2026-04-22 19:25 | 45.94253 | 14.98050 | 36208 ft | 458 kts | 27° |
| 2026-04-22 19:26 | 45.99655 | 15.02925 | 36206 ft | 459 kts | 28° |
| 2026-04-22 19:26 | 46.05060 | 15.07801 | 36208 ft | 458 kts | 28° |
| 2026-04-22 19:27 | 46.10463 | 15.12675 | 36209 ft | 458 kts | 28° |
| 2026-04-22 19:27 | 46.15866 | 15.17575 | 36209 ft | 459 kts | 28° |
| 2026-04-22 19:28 | 46.21308 | 15.22510 | 36225 ft | 459 kts | 28° |
| 2026-04-22 19:28 | 46.26676 | 15.27399 | 36224 ft | 459 kts | 28° |
| 2026-04-22 19:29 | 46.32090 | 15.32347 | 35749 ft | 451 kts | 28° |
| 2026-04-22 19:29 | 46.34684 | 15.34717 | 35354 ft | 443 kts | 28° |
| 2026-04-22 19:29 | 46.37275 | 15.37086 | 34993 ft | 439 kts | 29° |
| 2026-04-22 19:29 | 46.39851 | 15.39447 | 34619 ft | 438 kts | 29° |
| 2026-04-22 19:30 | 46.41592 | 15.41041 | 34375 ft | 438 kts | 29° |
| 2026-04-22 19:30 | 46.45001 | 15.44164 | 33833 ft | 438 kts | 29° |
| 2026-04-22 19:30 | 46.47571 | 15.46522 | 33400 ft | 437 kts | 29° |
| 2026-04-22 19:30 | 46.50139 | 15.48882 | 32971 ft | 435 kts | 30° |
| 2026-04-22 19:31 | 46.52686 | 15.51214 | 32526 ft | 431 kts | 28° |
| 2026-04-22 19:31 | 46.55349 | 15.53144 | 32093 ft | 424 kts | 21° |
| 2026-04-22 19:31 | 46.58055 | 15.54789 | 31659 ft | 420 kts | 21° |
| 2026-04-22 19:31 | 46.60737 | 15.56422 | 31233 ft | 416 kts | 21° |
| 2026-04-22 19:32 | 46.63390 | 15.58038 | 30817 ft | 412 kts | 21° |
| 2026-04-22 19:32 | 46.66022 | 15.59641 | 30401 ft | 408 kts | 21° |
| 2026-04-22 19:32 | 46.68621 | 15.61229 | 29926 ft | 404 kts | 21° |
| 2026-04-22 19:32 | 46.71200 | 15.62805 | 29429 ft | 400 kts | 21° |
| 2026-04-22 19:33 | 46.73749 | 15.64365 | 28933 ft | 396 kts | 22° |
| 2026-04-22 19:33 | 46.76277 | 15.65917 | 28456 ft | 392 kts | 22° |
| 2026-04-22 19:33 | 46.78774 | 15.67454 | 27989 ft | 388 kts | 22° |
| 2026-04-22 19:33 | 46.81252 | 15.68981 | 27524 ft | 385 kts | 22° |
| 2026-04-22 19:34 | 46.83709 | 15.70496 | 27086 ft | 382 kts | 22° |
| 2026-04-22 19:34 | 46.86147 | 15.71997 | 26660 ft | 379 kts | 22° |
| 2026-04-22 19:34 | 46.88562 | 15.73484 | 26245 ft | 376 kts | 23° |
| 2026-04-22 19:34 | 46.90965 | 15.74965 | 25834 ft | 373 kts | 23° |
| 2026-04-22 19:35 | 46.93346 | 15.76432 | 25436 ft | 370 kts | 23° |
| 2026-04-22 19:35 | 46.95703 | 15.77886 | 25035 ft | 366 kts | 23° |
| 2026-04-22 19:35 | 46.97254 | 15.78845 | 24773 ft | 364 kts | 23° |
| 2026-04-22 19:35 | 47.00360 | 15.80768 | 24253 ft | 361 kts | 24° |
| 2026-04-22 19:36 | 47.02661 | 15.82195 | 23863 ft | 358 kts | 24° |
| 2026-04-22 19:36 | 47.04945 | 15.83611 | 23427 ft | 355 kts | 24° |
| 2026-04-22 19:36 | 47.07211 | 15.85018 | 22973 ft | 353 kts | 24° |
| 2026-04-22 19:36 | 47.09444 | 15.86462 | 22524 ft | 348 kts | 29° |
| 2026-04-22 19:37 | 47.11460 | 15.88382 | 22085 ft | 344 kts | 34° |
| 2026-04-22 19:37 | 47.13431 | 15.90340 | 21650 ft | 341 kts | 34° |
| 2026-04-22 19:37 | 47.15390 | 15.92281 | 21225 ft | 338 kts | 34° |
| 2026-04-22 19:37 | 47.17337 | 15.94211 | 20799 ft | 336 kts | 34° |
| 2026-04-22 19:38 | 47.19271 | 15.96132 | 20392 ft | 334 kts | 34° |
| 2026-04-22 19:38 | 47.21190 | 15.98041 | 19985 ft | 332 kts | 34° |
| 2026-04-22 19:38 | 47.23100 | 15.99944 | 19610 ft | 330 kts | 34° |
| 2026-04-22 19:38 | 47.25000 | 16.01838 | 19286 ft | 329 kts | 34° |
| 2026-04-22 19:39 | 47.26865 | 16.03702 | 18963 ft | 328 kts | 34° |
| 2026-04-22 19:39 | 47.28747 | 16.05585 | 18651 ft | 326 kts | 34° |
| 2026-04-22 19:39 | 47.30620 | 16.07463 | 18308 ft | 325 kts | 34° |
| 2026-04-22 19:39 | 47.32479 | 16.09333 | 18190 ft | 323 kts | 34° |
| 2026-04-22 19:40 | 47.34338 | 16.11207 | 18199 ft | 324 kts | 34° |
| 2026-04-22 19:40 | 47.36198 | 16.13079 | 18202 ft | 324 kts | 34° |
| 2026-04-22 19:40 | 47.38059 | 16.14949 | 18205 ft | 324 kts | 34° |
| 2026-04-22 19:40 | 47.39928 | 16.16824 | 17993 ft | 324 kts | 34° |
| 2026-04-22 19:41 | 47.41784 | 16.18688 | 17663 ft | 322 kts | 34° |
| 2026-04-22 19:41 | 47.43628 | 16.20542 | 17341 ft | 321 kts | 34° |